createdAt,value
2024-02-24T00:02:29.121Z,1.30
2024-02-24T00:07:33.284Z,1.50
2024-02-24T00:12:37.805Z,1.33
2024-02-24T00:17:44.786Z,1.40
2024-02-24T00:22:49.404Z,1.60
2024-02-24T00:27:54.532Z,1.70
2024-02-24T00:33:00.599Z,1.30
2024-02-24T00:38:05.149Z,1.60
2024-02-24T00:43:09.792Z,1.60
2024-02-24T00:48:15.773Z,1.30
2024-02-24T00:53:20.322Z,1.60
2024-02-24T00:58:25.004Z,1.20
2024-02-24T01:03:31.163Z,1.40
2024-02-24T01:08:35.730Z,1.60
2024-02-24T01:13:40.353Z,1.30
2024-02-24T01:18:46.680Z,1.40
2024-02-24T01:23:51.321Z,1.50
2024-02-24T01:28:55.991Z,1.80
2024-02-24T01:34:02.124Z,1.33
2024-02-24T01:39:06.686Z,1.80
2024-02-24T01:44:11.189Z,1.20
2024-02-24T01:49:17.480Z,1.60
2024-02-24T01:54:22.569Z,1.20
2024-02-24T01:59:27.624Z,1.40
2024-02-24T02:04:33.638Z,1.40
2024-02-24T02:09:55.158Z,1.30
2024-02-24T02:14:59.756Z,1.40
2024-02-24T02:20:07.012Z,1.40
2024-02-24T02:25:13.794Z,1.60
2024-02-24T02:30:18.538Z,1.70
2024-02-24T02:35:24.157Z,1.70
2024-02-24T02:40:30.224Z,1.37
2024-02-24T02:45:34.731Z,1.30
2024-02-24T02:50:39.287Z,1.50
2024-02-24T02:55:45.355Z,1.40
2024-02-24T03:00:50.068Z,1.20
2024-02-24T03:05:54.649Z,1.50
2024-02-24T03:11:01.411Z,1.30
2024-02-24T03:16:06.493Z,1.50
2024-02-24T03:21:10.986Z,1.93
2024-02-24T03:26:16.926Z,1.50
2024-02-24T03:31:21.751Z,1.30
2024-02-24T03:36:26.361Z,1.50
2024-02-24T03:41:35.426Z,1.43
2024-02-24T03:46:39.926Z,1.73
2024-02-24T03:51:44.388Z,1.80
2024-02-24T03:56:52.168Z,1.60
2024-02-24T04:01:56.808Z,2.40
2024-02-24T04:07:01.280Z,1.40
2024-02-24T04:12:07.743Z,2.13
2024-02-24T04:17:12.398Z,1.73
2024-02-24T04:22:16.956Z,2.10
2024-02-24T04:27:22.840Z,1.63
2024-02-24T04:32:27.468Z,1.63
2024-02-24T04:37:32.014Z,2.00
2024-02-24T04:42:38.345Z,1.80
2024-02-24T04:47:43.296Z,2.00
2024-02-24T04:52:47.959Z,1.90
2024-02-24T04:57:53.919Z,1.93
2024-02-24T05:02:58.637Z,2.00
2024-02-24T05:08:03.108Z,2.33
2024-02-24T05:13:09.081Z,1.87
2024-02-24T05:18:13.805Z,1.80
2024-02-24T05:23:18.560Z,1.93
2024-02-24T05:28:24.545Z,1.60
2024-02-24T05:33:29.109Z,1.80
2024-02-24T05:38:36.622Z,1.60
2024-02-24T05:43:43.114Z,1.50
2024-02-24T05:48:48.442Z,1.70
2024-02-24T05:53:53.196Z,1.70
2024-02-24T05:58:59.181Z,1.60
2024-02-24T06:04:03.692Z,1.57
2024-02-24T06:09:08.262Z,1.50
2024-02-24T06:14:14.939Z,1.63
2024-02-24T06:19:19.483Z,1.70
2024-02-24T06:24:24.061Z,1.80
2024-02-24T06:29:30.049Z,1.70
2024-02-24T06:34:34.697Z,1.70
2024-02-24T06:39:39.242Z,1.50
2024-02-24T06:44:45.273Z,1.50
2024-02-24T06:49:50.039Z,1.50
2024-02-24T06:54:54.727Z,1.70
2024-02-24T07:00:00.484Z,1.63
2024-02-24T07:05:05.346Z,1.53
2024-02-24T07:10:10.804Z,1.73
2024-02-24T07:15:16.926Z,1.67
2024-02-24T07:20:21.632Z,1.50
2024-02-24T07:25:26.247Z,1.83
2024-02-24T07:30:32.257Z,1.80
2024-02-24T07:35:36.969Z,1.80
2024-02-24T07:40:41.967Z,1.70
2024-02-24T07:45:48.058Z,1.60
2024-02-24T07:50:52.668Z,1.60
2024-02-24T07:55:57.331Z,1.40
2024-02-24T08:01:03.484Z,1.43
2024-02-24T08:06:08.861Z,1.53
2024-02-24T08:11:13.712Z,1.60
2024-02-24T08:16:24.956Z,1.30
2024-02-24T08:21:30.238Z,1.50
2024-02-24T08:26:36.858Z,1.23
2024-02-24T08:31:44.448Z,1.50
2024-02-24T08:36:49.236Z,1.07
2024-02-24T08:41:54.804Z,1.33
2024-02-24T08:47:00.807Z,1.00
2024-02-24T08:52:05.457Z,0.90
2024-02-24T08:57:10.317Z,0.63
2024-02-24T09:02:16.518Z,0.63
2024-02-24T09:07:22.374Z,0.80
2024-02-24T09:12:27.156Z,1.73
2024-02-24T09:17:34.057Z,0.77
2024-02-24T09:22:39.021Z,0.83
2024-02-24T09:27:44.190Z,1.17
2024-02-24T09:32:50.435Z,0.80
2024-02-24T09:37:54.974Z,0.90
2024-02-24T09:43:06.539Z,0.50
2024-02-24T09:48:13.487Z,1.33
2024-02-24T09:53:18.259Z,0.80
2024-02-24T09:58:24.141Z,0.83
2024-02-24T10:03:30.371Z,0.60
2024-02-24T10:08:35.088Z,0.50
2024-02-24T10:13:39.704Z,0.67
2024-02-24T10:18:45.845Z,0.70
2024-02-24T10:23:50.513Z,0.80
2024-02-24T10:28:56.265Z,0.70
2024-02-24T10:34:03.949Z,0.77
2024-02-24T10:39:09.511Z,0.57
2024-02-24T10:44:22.579Z,0.60
2024-02-24T10:49:30.205Z,0.50
2024-02-24T10:54:36.058Z,0.70
2024-02-24T10:59:40.607Z,0.80
2024-02-24T11:04:48.887Z,0.70
2024-02-24T11:09:57.136Z,0.90
2024-02-24T11:15:02.145Z,0.70
2024-02-24T11:20:09.316Z,1.20
2024-02-24T11:25:20.333Z,0.83
2024-02-24T11:30:46.677Z,0.60
2024-02-24T11:35:53.365Z,0.80
2024-02-24T11:40:58.709Z,0.77
2024-02-24T11:46:04.104Z,0.70
2024-02-24T11:51:11.642Z,0.80
2024-02-24T11:56:16.254Z,1.00
2024-02-24T12:01:20.866Z,0.90
2024-02-24T12:06:28.188Z,0.80
2024-02-24T12:11:32.985Z,0.70
2024-02-24T12:16:39.426Z,1.00
2024-02-24T12:21:50.825Z,0.80
2024-02-24T12:26:55.812Z,0.80
2024-02-24T12:32:00.670Z,1.10
2024-02-24T12:37:09.441Z,0.80
2024-02-24T12:42:14.009Z,0.90
2024-02-24T12:47:18.698Z,0.60
2024-02-24T12:52:24.917Z,0.73
2024-02-24T12:57:29.605Z,0.73
2024-02-24T13:02:34.257Z,0.80
2024-02-24T13:07:40.255Z,1.70
2024-02-24T13:12:45.212Z,1.10
2024-02-24T13:17:49.977Z,0.90
2024-02-24T13:22:56.098Z,0.70
2024-02-24T13:28:00.826Z,0.90
2024-02-24T13:33:05.736Z,0.80
2024-02-24T13:38:12.118Z,0.90
2024-02-24T13:43:16.844Z,0.67
2024-02-24T13:48:21.772Z,0.60
2024-02-24T13:53:28.100Z,0.80
2024-02-24T13:58:32.763Z,0.80
2024-02-24T14:03:37.393Z,0.90
2024-02-24T14:08:43.681Z,1.07
2024-02-24T14:13:49.720Z,0.70
2024-02-24T14:18:54.630Z,0.73
2024-02-24T14:24:00.848Z,0.80
2024-02-24T14:29:05.804Z,0.60
2024-02-24T14:34:10.454Z,0.67
2024-02-24T14:39:16.585Z,0.70
2024-02-24T14:44:21.187Z,0.83
2024-02-24T14:49:26.288Z,1.00
2024-02-24T14:54:32.354Z,1.00
2024-02-24T14:59:36.992Z,0.80
2024-02-24T15:04:42.473Z,0.80
2024-02-24T15:09:50.258Z,1.00
2024-02-24T15:14:54.963Z,0.83
2024-02-24T15:20:03.152Z,0.70
2024-02-24T15:25:11.210Z,1.10
2024-02-24T15:30:16.440Z,0.90
2024-02-24T15:35:21.003Z,0.87
2024-02-24T15:40:28.373Z,0.67
2024-02-24T15:45:33.938Z,0.90
2024-02-24T15:50:38.643Z,0.60
2024-02-24T15:55:44.936Z,0.80
2024-02-24T16:00:49.575Z,0.83
2024-02-24T16:05:54.490Z,0.97
2024-02-24T16:11:00.743Z,0.90
2024-02-24T16:16:08.044Z,0.70
2024-02-24T16:21:13.053Z,0.83
2024-02-24T16:26:19.523Z,1.10
2024-02-24T16:31:24.022Z,1.03
2024-02-24T16:36:29.892Z,0.97
2024-02-24T16:41:36.181Z,0.87
2024-02-24T16:46:45.021Z,0.93
2024-02-24T16:51:50.426Z,0.80
2024-02-24T16:56:56.614Z,0.80
2024-02-24T17:02:01.313Z,0.80
2024-02-24T17:07:06.539Z,0.93
2024-02-24T17:12:12.724Z,0.80
2024-02-24T17:17:17.690Z,1.00
2024-02-24T17:22:22.296Z,1.00
2024-02-24T17:27:28.360Z,0.80
2024-02-24T17:32:33.930Z,0.80
2024-02-24T17:37:39.915Z,0.90
2024-02-24T17:42:45.953Z,0.80
2024-02-24T17:47:50.576Z,0.87
2024-02-24T17:52:55.199Z,0.60
2024-02-24T17:58:01.356Z,0.90
2024-02-24T18:03:07.148Z,0.70
2024-02-24T18:08:11.649Z,0.97
2024-02-24T18:13:17.639Z,1.17
2024-02-24T18:18:22.294Z,1.10
2024-02-24T18:23:26.921Z,1.00
2024-02-24T18:28:33.154Z,1.00
2024-02-24T18:33:38.914Z,1.13
2024-02-24T18:38:43.688Z,1.37
2024-02-24T18:43:49.918Z,1.00
2024-02-24T18:48:54.907Z,1.20
2024-02-24T18:53:59.934Z,1.13
2024-02-24T18:59:07.486Z,0.93
2024-02-24T19:04:13.251Z,4.50
2024-02-24T19:09:18.202Z,0.90
2024-02-24T19:14:24.648Z,0.90
2024-02-24T19:19:29.383Z,1.00
2024-02-24T19:24:33.941Z,0.90
2024-02-24T19:29:45.685Z,1.30
2024-02-24T19:34:53.010Z,0.87
2024-02-24T19:39:58.021Z,1.37
2024-02-24T19:45:04.778Z,1.57
2024-02-24T19:50:10.141Z,1.70
2024-02-24T19:55:17.409Z,2.40
2024-02-24T20:00:24.216Z,2.00
2024-02-24T20:05:28.828Z,2.20
2024-02-24T20:10:33.088Z,1.63
2024-02-24T20:15:38.956Z,1.80
2024-02-24T20:20:43.449Z,1.90
2024-02-24T20:25:52.517Z,1.30
2024-02-24T20:30:58.445Z,1.30
2024-02-24T20:36:03.553Z,1.30
2024-02-24T20:41:08.253Z,1.50
2024-02-24T20:46:14.310Z,2.00
2024-02-24T20:51:18.776Z,1.40
2024-02-24T20:56:23.287Z,1.53
2024-02-24T21:01:31.079Z,1.83
2024-02-24T21:06:35.753Z,1.37
2024-02-24T21:11:40.479Z,1.33
2024-02-24T21:16:46.635Z,1.60
2024-02-24T21:21:54.630Z,1.70
2024-02-24T21:26:59.491Z,1.50
2024-02-24T21:32:05.940Z,1.50
2024-02-24T21:37:10.481Z,1.67
2024-02-24T21:42:15.451Z,2.03
2024-02-24T21:47:21.350Z,2.00
2024-02-24T21:52:25.953Z,2.03
2024-02-24T21:57:30.321Z,1.77
2024-02-24T22:02:36.190Z,1.80
2024-02-24T22:07:40.818Z,2.40
2024-02-24T22:12:45.382Z,1.90
2024-02-24T22:17:51.350Z,2.10
2024-02-24T22:22:55.987Z,2.33
2024-02-24T22:28:00.488Z,2.57
2024-02-24T22:33:07.235Z,2.83
2024-02-24T22:38:11.924Z,2.50
2024-02-24T22:43:17.328Z,2.17
2024-02-24T22:48:23.451Z,2.03
2024-02-24T22:53:28.084Z,2.50
2024-02-24T22:58:32.663Z,2.70
2024-02-24T23:03:38.410Z,3.37
2024-02-24T23:08:42.986Z,2.37
2024-02-24T23:13:47.603Z,4.27
2024-02-24T23:18:53.760Z,5.90
2024-02-24T23:23:58.584Z,5.30
2024-02-24T23:29:04.571Z,6.47
2024-02-24T23:34:10.720Z,5.67
2024-02-24T23:39:15.248Z,5.67
2024-02-24T23:44:19.795Z,5.73
2024-02-24T23:49:25.978Z,6.00
2024-02-24T23:54:30.738Z,5.40
2024-02-24T23:59:35.579Z,5.33
